createdAt,value
2022-11-03T00:00:51.503Z,101066.22
2022-11-03T00:02:54.358Z,101058.53
2022-11-03T00:04:57.174Z,101059.44
2022-11-03T00:06:58.992Z,101052.50
2022-11-03T00:09:03.557Z,101055.19
2022-11-03T00:11:10.483Z,101052.56
2022-11-03T00:13:13.249Z,101056.75
2022-11-03T00:15:16.032Z,101054.91
2022-11-03T00:17:18.757Z,101057.50
2022-11-03T00:19:21.705Z,101050.50
2022-11-03T00:21:25.019Z,101050.47
2022-11-03T00:23:29.571Z,101043.50
2022-11-03T00:25:32.407Z,101036.66
2022-11-03T00:27:36.570Z,101035.84
2022-11-03T00:29:39.376Z,101039.25
2022-11-03T00:31:43.670Z,101031.50
2022-11-03T00:33:47.160Z,101025.44
2022-11-03T00:35:50.011Z,101018.50
2022-11-03T00:37:52.804Z,101013.31
2022-11-03T00:39:55.584Z,101005.56
2022-11-03T00:41:58.369Z,101009.78
2022-11-03T00:44:02.757Z,101002.81
2022-11-03T00:46:07.261Z,101005.22
2022-11-03T00:48:27.835Z,101006.84
2022-11-03T00:50:30.635Z,101002.53
2022-11-03T00:52:33.558Z,100994.81
2022-11-03T00:54:36.387Z,100999.97
2022-11-03T00:56:41.135Z,101000.75
2022-11-03T00:58:44.615Z,100997.25
2022-11-03T01:00:49.235Z,101003.34
2022-11-03T01:02:52.141Z,101002.53
2022-11-03T01:05:12.667Z,101012.94
2022-11-03T01:07:15.463Z,101007.56
2022-11-03T01:09:18.664Z,101004.09
2022-11-03T01:11:41.505Z,100998.88
2022-11-03T01:13:44.283Z,101000.66
2022-11-03T01:15:48.397Z,100986.00
2022-11-03T01:17:51.183Z,100985.97
2022-11-03T01:19:54.283Z,100985.00
2022-11-03T01:21:57.181Z,100986.72
2022-11-03T01:24:01.697Z,100986.78
2022-11-03T01:26:05.825Z,100990.22
2022-11-03T01:28:08.547Z,100989.38
2022-11-03T01:30:12.546Z,100985.09
2022-11-03T01:32:16.702Z,100993.13
2022-11-03T01:34:21.436Z,100987.88
2022-11-03T01:36:24.853Z,100987.78
2022-11-03T01:38:27.798Z,100980.84
2022-11-03T01:40:30.811Z,100980.06
2022-11-03T01:42:33.888Z,100978.25
2022-11-03T01:44:37.894Z,100971.28
2022-11-03T01:46:43.681Z,100965.19
2022-11-03T01:48:54.740Z,100965.25
2022-11-03T01:50:57.591Z,100960.81
2022-11-03T01:53:00.577Z,100954.72
2022-11-03T01:55:08.089Z,100955.63
2022-11-03T01:57:16.520Z,100956.56
2022-11-03T01:59:21.945Z,100945.31
2022-11-03T02:01:25.121Z,100949.50
2022-11-03T02:03:32.747Z,100945.25
2022-11-03T02:05:37.811Z,100941.75
2022-11-03T02:07:47.795Z,100933.97
2022-11-03T02:09:50.569Z,100922.78
2022-11-03T02:12:07.924Z,100927.94
2022-11-03T02:14:13.466Z,100926.16
2022-11-03T02:16:16.884Z,100922.63
2022-11-03T02:18:22.432Z,100920.06
2022-11-03T02:20:27.726Z,100921.88
2022-11-03T02:22:49.806Z,100916.75
2022-11-03T02:24:54.560Z,100912.41
2022-11-03T02:26:58.834Z,100908.91
2022-11-03T02:29:01.714Z,100904.56
2022-11-03T02:31:11.316Z,100901.16
2022-11-03T02:33:26.742Z,100896.03
2022-11-03T02:35:32.190Z,100892.16
2022-11-03T02:37:37.851Z,100886.94
2022-11-03T02:39:44.746Z,100892.28
2022-11-03T02:41:49.355Z,100884.50
2022-11-03T02:43:55.281Z,100875.97
2022-11-03T02:45:58.492Z,100879.50
2022-11-03T02:48:03.914Z,100870.03
2022-11-03T02:50:10.407Z,100864.81
2022-11-03T02:52:35.181Z,100864.75
2022-11-03T02:54:43.164Z,100863.97
2022-11-03T02:56:53.172Z,100860.53
2022-11-03T02:59:02.508Z,100851.13
2022-11-03T03:01:18.650Z,100855.50
2022-11-03T03:03:26.318Z,100851.13
2022-11-03T03:05:32.969Z,100842.50
2022-11-03T03:07:38.688Z,100838.94
2022-11-03T03:09:52.968Z,100844.19
2022-11-03T03:11:58.293Z,100837.34
2022-11-03T03:14:02.427Z,100835.56
2022-11-03T03:16:12.853Z,100839.88
2022-11-03T03:18:24.955Z,100834.72
2022-11-03T03:20:33.133Z,100837.34
2022-11-03T03:22:40.550Z,100835.63
2022-11-03T03:24:52.064Z,100828.72
2022-11-03T03:26:59.396Z,100823.44
2022-11-03T03:29:08.486Z,100820.03
2022-11-03T03:31:15.413Z,100807.81
2022-11-03T03:33:19.454Z,100811.19
2022-11-03T03:35:25.300Z,100814.63
2022-11-03T03:37:30.343Z,100812.03
2022-11-03T03:39:37.190Z,100805.09
2022-11-03T03:41:41.792Z,100805.97
2022-11-03T03:43:44.998Z,100794.72
2022-11-03T03:45:52.830Z,100787.88
2022-11-03T03:48:02.927Z,100799.06
2022-11-03T03:50:06.670Z,100796.47
2022-11-03T03:52:10.311Z,100799.06
2022-11-03T03:54:13.054Z,100786.09
2022-11-03T03:56:16.686Z,100791.34
2022-11-03T03:58:19.614Z,100780.91
2022-11-03T04:00:22.432Z,100786.16
2022-11-03T04:02:26.805Z,100780.91
2022-11-03T04:04:29.784Z,100783.47
2022-11-03T04:06:32.748Z,100785.13
2022-11-03T04:08:35.559Z,100779.09
2022-11-03T04:10:38.694Z,100776.50
2022-11-03T04:12:59.818Z,100776.50
2022-11-03T04:15:20.064Z,100773.03
2022-11-03T04:17:41.429Z,100777.31
2022-11-03T04:20:02.966Z,100771.25
2022-11-03T04:22:17.552Z,100766.88
2022-11-03T04:24:20.319Z,100768.50
2022-11-03T04:26:23.862Z,100773.69
2022-11-03T04:28:27.311Z,100770.22
2022-11-03T04:30:30.076Z,100766.78
2022-11-03T04:32:35.892Z,100763.31
2022-11-03T04:34:38.739Z,100758.03
2022-11-03T04:36:42.836Z,100761.53
2022-11-03T04:38:46.166Z,100755.50
2022-11-03T04:40:53.801Z,100747.72
2022-11-03T04:42:58.725Z,100743.38
2022-11-03T04:45:03.201Z,100743.34
2022-11-03T04:47:10.905Z,100745.94
2022-11-03T04:49:21.938Z,100748.53
2022-11-03T04:51:27.792Z,100746.72
2022-11-03T04:53:33.996Z,100740.63
2022-11-03T04:55:36.806Z,100739.72
2022-11-03T04:57:40.566Z,100740.63
2022-11-03T04:59:45.774Z,100736.19
2022-11-03T05:01:48.697Z,100745.63
2022-11-03T05:03:54.164Z,100739.59
2022-11-03T05:05:57.399Z,100731.84
2022-11-03T05:08:00.233Z,100724.06
2022-11-03T05:10:06.526Z,100725.88
2022-11-03T05:12:10.307Z,100727.59
2022-11-03T05:14:16.695Z,100717.22
2022-11-03T05:16:19.976Z,100714.69
2022-11-03T05:18:28.029Z,100708.59
2022-11-03T05:20:36.409Z,100705.16
2022-11-03T05:22:39.519Z,100699.09
2022-11-03T05:24:42.604Z,100702.53
2022-11-03T05:26:46.923Z,100702.50
2022-11-03T05:28:53.220Z,100704.13
2022-11-03T05:30:56.624Z,100701.38
2022-11-03T05:32:59.610Z,100704.00
2022-11-03T05:35:02.442Z,100707.53
2022-11-03T05:37:26.080Z,100692.84
2022-11-03T05:39:32.701Z,100693.63
2022-11-03T05:41:36.267Z,100691.91
2022-11-03T05:43:40.545Z,100685.81
2022-11-03T05:45:43.982Z,100684.00
2022-11-03T05:47:47.007Z,100679.59
2022-11-03T05:49:51.823Z,100674.41
2022-11-03T05:51:54.761Z,100670.91
2022-11-03T05:54:02.237Z,100658.03
2022-11-03T05:56:07.216Z,100653.72
2022-11-03T05:58:20.999Z,100645.78
2022-11-03T06:00:30.661Z,100641.47
2022-11-03T06:02:38.522Z,100644.84
2022-11-03T06:04:41.488Z,100643.09
2022-11-03T06:06:45.426Z,100641.41
2022-11-03T06:08:49.342Z,100637.88
2022-11-03T06:10:55.155Z,100635.22
2022-11-03T06:13:02.640Z,100642.16
2022-11-03T06:15:11.569Z,100649.94
2022-11-03T06:17:23.054Z,100642.03
2022-11-03T06:19:29.474Z,100648.91
2022-11-03T06:21:32.392Z,100646.38
2022-11-03T06:23:37.016Z,100644.63
2022-11-03T06:25:41.893Z,100651.38
2022-11-03T06:27:44.849Z,100654.00
2022-11-03T06:29:53.043Z,100642.81
2022-11-03T06:31:58.337Z,100642.00
2022-11-03T06:34:03.130Z,100632.50
2022-11-03T06:36:14.809Z,100634.25
2022-11-03T06:38:22.243Z,100637.09
2022-11-03T06:43:40.794Z,100619.75
2022-11-03T06:45:50.945Z,100611.16
2022-11-03T06:47:55.007Z,100611.09
2022-11-03T06:50:00.890Z,100613.75
2022-11-03T06:52:15.095Z,100612.91
2022-11-03T06:54:17.881Z,100616.28
2022-11-03T06:56:23.597Z,100615.41
2022-11-03T06:58:31.162Z,100604.09
2022-11-03T07:00:41.049Z,100598.97
2022-11-03T07:02:54.884Z,100595.63
2022-11-03T07:04:58.987Z,100588.78
2022-11-03T07:07:03.941Z,100583.59
2022-11-03T07:09:09.743Z,100583.66
2022-11-03T07:11:17.243Z,100589.69
2022-11-03T07:13:24.511Z,100588.84
2022-11-03T07:15:32.185Z,100597.47
2022-11-03T07:17:35.267Z,100594.84
2022-11-03T07:19:41.973Z,100594.91
2022-11-03T07:21:49.638Z,100594.91
2022-11-03T07:23:53.312Z,100595.72
2022-11-03T07:25:59.603Z,100588.00
2022-11-03T07:28:04.593Z,100589.00
2022-11-03T07:30:19.011Z,100586.53
2022-11-03T07:32:24.907Z,100584.00
2022-11-03T07:34:32.573Z,100577.97
2022-11-03T07:36:35.505Z,100579.78
2022-11-03T07:38:39.648Z,100572.94
2022-11-03T07:40:43.435Z,100569.50
2022-11-03T07:42:46.365Z,100566.13
2022-11-03T07:44:49.834Z,100568.75
2022-11-03T07:46:52.675Z,100560.06
2022-11-03T07:48:58.297Z,100556.59
2022-11-03T07:51:07.003Z,100559.22
2022-11-03T07:53:13.984Z,100540.25
2022-11-03T07:55:18.775Z,100532.59
2022-11-03T07:57:25.726Z,100529.28
2022-11-03T07:59:32.209Z,100514.63
2022-11-03T08:01:38.571Z,100510.34
2022-11-03T08:03:45.058Z,100504.34
2022-11-03T08:05:47.810Z,100511.25
2022-11-03T08:07:50.620Z,100512.97
2022-11-03T08:09:53.519Z,100501.81
2022-11-03T08:11:57.628Z,100500.19
2022-11-03T08:14:00.434Z,100495.03
2022-11-03T08:16:03.575Z,100488.13
2022-11-03T08:18:06.437Z,100480.47
2022-11-03T08:20:10.064Z,100479.63
2022-11-03T08:22:12.808Z,100482.25
2022-11-03T08:24:15.650Z,100474.50
2022-11-03T08:26:18.572Z,100471.94
2022-11-03T08:28:22.852Z,100485.81
2022-11-03T08:30:25.715Z,100487.34
2022-11-03T08:32:28.543Z,100488.19
2022-11-03T08:34:31.454Z,100490.91
2022-11-03T08:36:34.292Z,100480.47
2022-11-03T08:38:37.682Z,100490.81
2022-11-03T08:40:40.479Z,100487.41
2022-11-03T08:42:43.322Z,100483.16
2022-11-03T08:44:47.492Z,100489.31
2022-11-03T08:46:50.273Z,100485.13
2022-11-03T08:48:53.276Z,100479.97
2022-11-03T08:50:56.830Z,100479.25
2022-11-03T08:52:59.623Z,100473.34
2022-11-03T08:55:02.535Z,100468.13
2022-11-03T08:57:05.357Z,100463.03
2022-11-03T08:59:08.172Z,100456.28
2022-11-03T09:01:12.473Z,100456.41
2022-11-03T09:03:15.734Z,100453.06
2022-11-03T09:05:18.714Z,100456.59
2022-11-03T09:07:21.657Z,100460.06
2022-11-03T09:11:47.283Z,100460.91
2022-11-03T09:13:50.086Z,100459.16
2022-11-03T09:15:54.100Z,100450.66
2022-11-03T09:17:58.341Z,100446.41
2022-11-03T09:20:01.145Z,100447.19
2022-11-03T09:22:05.512Z,100448.06
2022-11-03T09:24:08.855Z,100442.94
2022-11-03T09:26:11.725Z,100444.75
2022-11-03T09:28:15.740Z,100430.91
2022-11-03T09:30:18.736Z,100426.63
2022-11-03T09:32:23.621Z,100413.59
2022-11-03T09:34:29.218Z,100409.41
2022-11-03T09:36:32.160Z,100406.69
2022-11-03T09:38:34.929Z,100407.56
2022-11-03T09:40:37.854Z,100402.38
2022-11-03T09:42:41.459Z,100392.78
2022-11-03T09:44:44.371Z,100392.78
2022-11-03T09:46:48.053Z,100391.19
2022-11-03T09:48:50.895Z,100384.19
2022-11-03T09:50:55.816Z,100382.56
2022-11-03T09:52:59.174Z,100379.97
2022-11-03T09:55:02.004Z,100383.34
2022-11-03T09:57:12.518Z,100379.94
2022-11-03T09:59:17.929Z,100370.38
2022-11-03T10:01:21.024Z,100366.97
2022-11-03T10:03:23.939Z,100358.34
2022-11-03T10:05:28.262Z,100350.56
2022-11-03T10:07:32.614Z,100357.56
2022-11-03T10:09:35.646Z,100359.31
2022-11-03T10:11:39.320Z,100359.31
2022-11-03T10:13:45.328Z,100343.69
2022-11-03T10:15:48.107Z,100339.34
2022-11-03T10:17:51.866Z,100335.88
2022-11-03T10:19:57.635Z,100343.75
2022-11-03T10:22:00.479Z,100349.00
2022-11-03T10:24:04.951Z,100339.47
2022-11-03T10:26:12.158Z,100331.69
2022-11-03T10:28:20.810Z,100323.84
2022-11-03T10:30:23.704Z,100316.09
2022-11-03T10:32:33.424Z,100310.91
2022-11-03T10:34:37.828Z,100305.63
2022-11-03T10:36:40.612Z,100294.41
2022-11-03T10:38:43.627Z,100292.66
2022-11-03T10:40:48.671Z,100290.91
2022-11-03T10:42:59.882Z,100286.53
2022-11-03T10:45:17.298Z,100296.94
2022-11-03T10:47:33.648Z,100295.19
2022-11-03T10:49:40.868Z,100288.25
2022-11-03T10:51:48.888Z,100273.50
2022-11-03T10:53:51.638Z,100268.28
2022-11-03T10:55:57.304Z,100259.63
2022-11-03T10:58:01.163Z,100243.13
2022-11-03T11:00:04.739Z,100244.88
2022-11-03T11:02:17.006Z,100253.56
2022-11-03T11:04:21.966Z,100254.41
2022-11-03T11:06:27.551Z,100239.66
2022-11-03T11:08:30.395Z,100240.53
2022-11-03T11:10:33.546Z,100228.38
2022-11-03T11:12:37.901Z,100232.69
2022-11-03T11:14:53.785Z,100229.22
2022-11-03T11:16:57.674Z,100219.66
2022-11-03T11:19:03.642Z,100211.84
2022-11-03T11:21:49.532Z,100198.81
2022-11-03T11:23:53.401Z,100210.97
2022-11-03T11:26:15.667Z,100211.81
2022-11-03T11:28:20.653Z,100222.25
2022-11-03T11:31:00.128Z,100221.41
2022-11-03T11:33:15.179Z,100202.28
2022-11-03T11:35:39.814Z,100211.84
2022-11-03T11:37:43.340Z,100212.69
2022-11-03T11:39:46.144Z,100204.88
2022-11-03T11:42:09.226Z,100207.50
2022-11-03T11:44:53.331Z,100207.47
2022-11-03T11:46:56.554Z,100205.72
2022-11-03T11:49:17.347Z,100197.94
2022-11-03T11:51:20.237Z,100190.06
2022-11-03T11:53:30.603Z,100177.94
2022-11-03T11:55:42.499Z,100171.00
2022-11-03T11:57:46.258Z,100171.84
2022-11-03T11:59:52.430Z,100169.25
2022-11-03T12:01:57.786Z,100158.81
2022-11-03T12:04:04.070Z,100145.78
2022-11-03T12:06:07.352Z,100151.84
2022-11-03T12:08:19.521Z,100144.91
2022-11-03T12:10:26.122Z,100130.13
2022-11-03T12:12:35.257Z,100120.56
2022-11-03T12:14:39.546Z,100118.81
2022-11-03T12:16:43.765Z,100115.34
2022-11-03T12:18:50.503Z,100117.09
2022-11-03T12:20:53.639Z,100113.59
2022-11-03T12:22:56.636Z,100113.59
2022-11-03T12:25:00.754Z,100094.50
2022-11-03T12:27:04.916Z,100088.41
2022-11-03T12:29:07.738Z,100089.28
2022-11-03T12:31:10.741Z,100082.31
2022-11-03T12:33:18.236Z,100082.31
2022-11-03T12:35:21.106Z,100085.78
2022-11-03T12:37:24.324Z,100093.63
2022-11-03T12:39:27.168Z,100086.69
2022-11-03T12:41:29.977Z,100086.69
2022-11-03T12:43:32.804Z,100084.06
2022-11-03T12:45:35.647Z,100070.13
2022-11-03T12:47:38.529Z,100077.09
2022-11-03T12:49:42.677Z,100067.53
2022-11-03T12:51:45.476Z,100062.31
2022-11-03T12:53:48.356Z,100051.88
2022-11-03T12:55:51.199Z,100044.09
2022-11-03T12:57:53.928Z,100041.47
2022-11-03T12:59:56.635Z,100037.09
2022-11-03T13:01:59.509Z,100029.28
2022-11-03T13:04:04.974Z,100027.56
2022-11-03T13:06:10.237Z,100018.84
2022-11-03T13:08:13.459Z,100014.47
2022-11-03T13:10:16.646Z,100013.63
2022-11-03T13:12:35.147Z,100012.78
2022-11-03T13:14:38.008Z,100012.78
2022-11-03T13:16:40.816Z,99991.06
2022-11-03T13:18:43.580Z,99969.31
2022-11-03T13:20:48.983Z,99958.00
2022-11-03T13:22:53.201Z,99951.03
2022-11-03T13:24:56.089Z,99944.06
2022-11-03T13:26:58.878Z,99931.00
2022-11-03T13:29:01.710Z,99922.31
2022-11-03T13:31:04.599Z,99912.72
2022-11-03T13:33:07.684Z,99901.44
2022-11-03T13:35:14.034Z,99891.84
2022-11-03T13:37:17.081Z,99886.66
2022-11-03T13:39:21.328Z,99880.53
2022-11-03T13:41:24.110Z,99879.69
2022-11-03T13:43:27.066Z,99883.16
2022-11-03T13:45:29.816Z,99877.97
2022-11-03T13:47:44.375Z,99878.81
2022-11-03T13:52:18.160Z,99877.97
2022-11-03T14:01:26.591Z,99867.59
2022-11-03T14:05:52.609Z,99867.59
2022-11-03T14:07:55.402Z,99864.16
2022-11-03T14:10:02.572Z,99855.47
2022-11-03T14:12:25.307Z,99845.03
2022-11-03T14:14:28.136Z,99847.63
2022-11-03T14:16:30.944Z,99854.56
2022-11-03T14:18:33.759Z,99851.09
2022-11-03T14:20:36.569Z,99857.19
2022-11-03T14:22:40.016Z,99847.66
2022-11-03T14:24:42.846Z,99835.50
2022-11-03T14:26:47.099Z,99831.13
2022-11-03T14:28:49.911Z,99825.91
2022-11-03T14:30:52.690Z,99820.66
2022-11-03T14:32:59.402Z,99818.88
2022-11-03T14:35:02.805Z,99807.56
2022-11-03T14:37:05.912Z,99804.09
2022-11-03T14:39:08.806Z,99791.88
2022-11-03T14:41:29.016Z,99787.50
2022-11-03T14:43:35.152Z,99782.28
2022-11-03T14:45:41.471Z,99778.78
2022-11-03T14:47:45.449Z,99778.78
2022-11-03T14:49:49.020Z,99772.69
2022-11-03T14:51:52.027Z,99770.09
2022-11-03T14:53:54.948Z,99759.66
2022-11-03T14:55:57.798Z,99761.41
2022-11-03T14:58:00.620Z,99764.88
2022-11-03T15:00:05.401Z,99757.91
2022-11-03T15:02:08.407Z,99755.31
2022-11-03T15:04:12.542Z,99753.59
2022-11-03T15:06:15.391Z,99749.31
2022-11-03T15:08:19.631Z,99753.66
2022-11-03T15:10:22.484Z,99755.44
2022-11-03T15:12:25.291Z,99751.97
2022-11-03T15:14:29.704Z,99757.25
2022-11-03T15:16:34.551Z,99761.63
2022-11-03T15:18:37.235Z,99759.09
2022-11-03T15:20:40.061Z,99764.34
2022-11-03T15:27:13.925Z,99753.84
2022-11-03T15:29:16.657Z,99754.69
2022-11-03T15:31:19.485Z,99745.97
2022-11-03T15:33:23.710Z,99743.38
2022-11-03T15:35:26.553Z,99745.06
2022-11-03T15:37:29.388Z,99727.66
2022-11-03T15:39:32.588Z,99729.38
2022-11-03T15:41:35.454Z,99720.63
2022-11-03T15:43:38.298Z,99710.22
2022-11-03T15:45:41.633Z,99695.44
2022-11-03T15:47:44.981Z,99691.03
2022-11-03T15:49:49.200Z,99689.31
2022-11-03T15:51:52.119Z,99691.13
2022-11-03T15:53:58.506Z,99688.50
2022-11-03T15:56:01.966Z,99689.38
2022-11-03T15:58:05.061Z,99678.13
2022-11-03T16:00:09.823Z,99671.19
2022-11-03T16:02:35.563Z,99663.34
2022-11-03T16:04:35.496Z,99667.72
2022-11-03T16:07:06.369Z,99659.88
2022-11-03T16:09:02.579Z,99661.75
2022-11-03T16:11:05.511Z,99658.28
2022-11-03T16:13:08.328Z,99661.75
2022-11-03T16:15:11.829Z,99653.91
2022-11-03T16:17:14.602Z,99646.16
2022-11-03T16:19:17.419Z,99654.00
2022-11-03T16:21:20.232Z,99660.97
2022-11-03T16:23:24.457Z,99652.28
2022-11-03T16:25:27.267Z,99655.78
2022-11-03T16:27:30.098Z,99661.91
2022-11-03T16:29:33.041Z,99661.09
2022-11-03T16:31:35.954Z,99664.56
2022-11-03T16:33:39.225Z,99669.75
2022-11-03T16:35:42.118Z,99671.53
2022-11-03T16:37:44.963Z,99675.00
2022-11-03T16:39:49.105Z,99674.13
2022-11-03T16:41:54.680Z,99667.22
2022-11-03T16:43:57.711Z,99656.72
2022-11-03T16:46:00.584Z,99649.75
2022-11-03T16:48:03.515Z,99647.06
2022-11-03T16:50:07.307Z,99637.47
2022-11-03T16:52:10.821Z,99632.25
2022-11-03T16:54:13.639Z,99640.03
2022-11-03T16:56:17.805Z,99631.34
2022-11-03T16:58:20.877Z,99620.91
2022-11-03T17:00:24.737Z,99616.53
2022-11-03T17:02:28.527Z,99606.13
2022-11-03T17:04:31.378Z,99594.84
2022-11-03T17:06:34.393Z,99592.22
2022-11-03T17:08:53.654Z,99583.53
2022-11-03T17:10:56.755Z,99587.91
2022-11-03T17:13:02.286Z,99586.16
2022-11-03T17:15:07.125Z,99580.06
2022-11-03T17:17:09.986Z,99573.13
2022-11-03T17:19:12.931Z,99573.13
2022-11-03T17:21:15.754Z,99560.91
2022-11-03T17:23:19.116Z,99564.38
2022-11-03T17:25:22.014Z,99554.00
2022-11-03T17:27:28.364Z,99542.72
2022-11-03T17:29:36.149Z,99545.34
2022-11-03T17:31:39.046Z,99540.09
2022-11-03T17:33:41.876Z,99528.81
2022-11-03T17:35:46.311Z,99526.25
2022-11-03T17:37:49.980Z,99533.22
2022-11-03T17:39:53.034Z,99517.59
2022-11-03T17:42:02.700Z,99521.09
2022-11-03T17:44:10.767Z,99517.63
2022-11-03T17:46:15.227Z,99511.53
2022-11-03T17:48:18.348Z,99511.56
2022-11-03T17:50:23.597Z,99509.81
2022-11-03T17:52:29.258Z,99508.09
2022-11-03T17:54:32.909Z,99510.69
2022-11-03T17:56:36.383Z,99521.13
2022-11-03T17:58:45.989Z,99527.22
2022-11-03T18:00:49.687Z,99530.69
2022-11-03T18:02:56.199Z,99528.97
2022-11-03T18:05:04.196Z,99533.28
2022-11-03T18:07:14.541Z,99542.84
2022-11-03T18:09:17.379Z,99537.63
2022-11-03T18:11:55.418Z,99548.94
2022-11-03T18:14:00.441Z,99548.00
2022-11-03T18:16:08.903Z,99522.81
2022-11-03T18:18:20.234Z,99514.97
2022-11-03T18:20:26.050Z,99518.47
2022-11-03T18:22:30.416Z,99508.91
2022-11-03T18:24:34.693Z,99502.84
2022-11-03T18:26:38.860Z,99499.38
2022-11-03T18:28:41.678Z,99495.91
2022-11-03T18:30:46.491Z,99494.19
2022-11-03T18:32:49.285Z,99498.69
2022-11-03T18:34:53.767Z,99496.03
2022-11-03T18:36:56.559Z,99493.41
2022-11-03T18:39:01.293Z,99487.31
2022-11-03T18:41:26.196Z,99489.16
2022-11-03T18:43:30.046Z,99489.16
2022-11-03T18:45:33.111Z,99488.25
2022-11-03T18:47:35.925Z,99483.84
2022-11-03T18:49:39.338Z,99488.19
2022-11-03T18:51:47.832Z,99482.97
2022-11-03T18:53:52.256Z,99498.66
2022-11-03T18:56:00.775Z,99490.88
2022-11-03T18:58:04.401Z,99498.69
2022-11-03T19:00:16.787Z,99503.00
2022-11-03T19:02:21.648Z,99506.50
2022-11-03T19:04:24.642Z,99503.00
2022-11-03T19:06:27.486Z,99502.09
2022-11-03T19:08:33.849Z,99506.44
2022-11-03T19:10:40.864Z,99506.41
2022-11-03T19:12:45.380Z,99508.13
2022-11-03T19:14:49.818Z,99500.34
2022-11-03T19:17:22.334Z,99509.00
2022-11-03T19:19:17.317Z,99499.44
2022-11-03T19:21:23.390Z,99497.72
2022-11-03T19:23:26.221Z,99490.75
2022-11-03T19:25:30.362Z,99484.66
2022-11-03T19:27:35.153Z,99471.63
2022-11-03T19:29:40.853Z,99473.34
2022-11-03T19:31:48.273Z,99464.63
2022-11-03T19:33:52.760Z,99463.72
2022-11-03T19:35:57.801Z,99455.97
2022-11-03T19:38:03.958Z,99461.22
2022-11-03T19:40:09.172Z,99461.19
2022-11-03T19:42:32.959Z,99449.88
2022-11-03T19:46:43.675Z,99437.69
2022-11-03T19:48:46.500Z,99434.25
2022-11-03T19:50:50.072Z,99428.19
2022-11-03T19:52:55.444Z,99419.53
2022-11-03T19:54:59.080Z,99424.78
2022-11-03T19:57:01.851Z,99415.19
2022-11-03T19:59:10.596Z,99419.50
2022-11-03T20:01:13.572Z,99413.41
2022-11-03T20:03:17.199Z,99414.38
2022-11-03T20:05:20.093Z,99419.59
2022-11-03T20:07:28.177Z,99406.47
2022-11-03T20:09:34.420Z,99403.06
2022-11-03T20:11:38.188Z,99407.44
2022-11-03T20:13:43.792Z,99402.22
2022-11-03T20:15:48.402Z,99406.56
2022-11-03T20:17:52.010Z,99410.09
2022-11-03T20:19:54.790Z,99409.16
2022-11-03T20:21:58.494Z,99403.09
2022-11-03T20:24:01.419Z,99403.94
2022-11-03T20:26:04.904Z,99394.41
2022-11-03T20:28:17.389Z,99390.00
2022-11-03T20:30:21.812Z,99390.00
2022-11-03T20:32:26.091Z,99389.16
2022-11-03T20:34:28.968Z,99387.38
2022-11-03T20:36:33.187Z,99381.28
2022-11-03T20:38:37.648Z,99390.88
2022-11-03T20:40:41.637Z,99381.34
2022-11-03T20:42:44.603Z,99379.53
2022-11-03T20:44:47.432Z,99374.38
2022-11-03T20:46:50.259Z,99370.84
2022-11-03T20:48:55.977Z,99363.91
2022-11-03T20:50:58.870Z,99366.50
2022-11-03T20:53:01.686Z,99364.84
2022-11-03T20:55:15.371Z,99366.59
2022-11-03T20:57:18.129Z,99375.28
2022-11-03T20:59:24.518Z,99381.38
2022-11-03T21:01:32.896Z,99373.50
2022-11-03T21:03:58.042Z,99373.47
2022-11-03T21:05:59.946Z,99371.72
2022-11-03T21:08:03.019Z,99376.97
2022-11-03T21:10:06.362Z,99386.44
2022-11-03T21:12:13.039Z,99389.06
2022-11-03T21:14:19.966Z,99395.22
2022-11-03T21:16:40.870Z,99395.22
2022-11-03T21:19:01.080Z,99386.53
2022-11-03T21:21:10.924Z,99403.00
2022-11-03T21:23:20.781Z,99417.88
2022-11-03T21:25:24.948Z,99425.81
2022-11-03T21:27:28.181Z,99423.19
2022-11-03T21:29:53.766Z,99422.19
2022-11-03T21:31:53.851Z,99419.59
2022-11-03T21:33:56.632Z,99398.69
2022-11-03T21:35:59.458Z,99360.28
2022-11-03T21:38:03.868Z,99362.06
2022-11-03T21:40:07.806Z,99376.94
2022-11-03T21:42:28.554Z,99365.63
2022-11-03T21:44:30.395Z,99371.72
2022-11-03T21:46:33.180Z,99370.97
2022-11-03T21:48:53.671Z,99404.03
2022-11-03T21:51:00.902Z,99439.72
2022-11-03T21:53:05.244Z,99450.91
2022-11-03T21:55:08.773Z,99462.28
2022-11-03T21:57:14.633Z,99464.00
2022-11-03T21:59:17.447Z,99466.59
2022-11-03T22:01:20.442Z,99465.75
2022-11-03T22:03:23.366Z,99466.56
2022-11-03T22:05:27.326Z,99480.50
2022-11-03T22:07:32.308Z,99481.47
2022-11-03T22:09:36.455Z,99476.19
2022-11-03T22:11:39.235Z,99476.25
2022-11-03T22:13:42.032Z,99478.94
2022-11-03T22:16:14.086Z,99487.59
2022-11-03T22:18:16.868Z,99476.31
2022-11-03T22:20:37.343Z,99451.88
2022-11-03T22:22:57.466Z,99465.91
2022-11-03T22:25:18.983Z,99492.94
2022-11-03T22:27:22.123Z,99482.44
2022-11-03T22:29:42.760Z,99486.75
2022-11-03T22:31:45.027Z,99484.16
2022-11-03T22:34:05.246Z,99498.91
2022-11-03T22:36:25.216Z,99506.78
2022-11-03T22:38:41.914Z,99501.59
2022-11-03T22:41:05.921Z,99514.63
2022-11-03T22:43:27.367Z,99524.22
2022-11-03T22:45:48.290Z,99529.31
2022-11-03T22:47:56.876Z,99537.13
2022-11-03T22:49:59.716Z,99536.22
2022-11-03T22:52:02.571Z,99531.91
2022-11-03T22:54:10.532Z,99538.03
2022-11-03T22:56:14.895Z,99540.63
2022-11-03T22:58:17.647Z,99543.22
2022-11-03T23:00:22.207Z,99553.66
2022-11-03T23:02:25.181Z,99562.31
2022-11-03T23:04:27.998Z,99572.78
2022-11-03T23:06:35.876Z,99567.56
2022-11-03T23:08:40.737Z,99583.19
2022-11-03T23:10:43.420Z,99584.94
2022-11-03T23:12:47.528Z,99578.84
2022-11-03T23:15:07.801Z,99571.84
2022-11-03T23:17:10.584Z,99586.63
2022-11-03T23:19:33.002Z,99571.00
2022-11-03T23:21:36.365Z,99571.00
2022-11-03T23:24:12.288Z,99580.53
2022-11-03T23:26:15.452Z,99575.38
2022-11-03T23:28:19.490Z,99579.66
2022-11-03T23:30:22.257Z,99574.47
2022-11-03T23:32:25.162Z,99580.56
2022-11-03T23:34:28.705Z,99588.38
2022-11-03T23:36:31.629Z,99588.34
2022-11-03T23:38:35.176Z,99589.22
2022-11-03T23:40:38.459Z,99609.16
2022-11-03T23:42:41.226Z,99619.56
2022-11-03T23:44:59.220Z,99607.41
2022-11-03T23:47:19.838Z,99618.69
2022-11-03T23:49:22.721Z,99629.09
2022-11-03T23:51:26.934Z,99626.53
2022-11-03T23:53:29.746Z,99629.13
2022-11-03T23:55:54.415Z,99629.13
2022-11-03T23:58:15.081Z,99630.00
